<?xml version="1.0" encoding="UTF-8" ?><gpx version="1.0" creator="GPSLogger - http://gpslogger.mendhak.com/" xmlns:xsi="http://www.w3.org/2001/XMLSchema-instance" xmlns="http://www.topografix.com/GPX/1/0" xsi:schemaLocation="http://www.topografix.com/GPX/1/0 http://www.topografix.com/GPX/1/0/gpx.xsd"><time>2015-11-28T13:16:10Z</time><bounds /><trk><trkseg><trkpt lat="47.41134469" lon="9.54329409"><ele>1132.0</ele><speed>0.0</speed><hdop>9.2</hdop><src>gps</src><sat>10</sat><time>2015-11-28T13:16:10Z</time></trkpt>
<trkpt lat="47.41135931" lon="9.54340877"><ele>1126.800048828125</ele><speed>0.0</speed><hdop>0.4</hdop><src>gps</src><sat>6</sat><time>2015-11-28T13:17:16Z</time></trkpt>
<trkpt lat="47.41132501" lon="9.54353194"><ele>1131.5999755859375</ele><course>121.5</course><speed>0.75</speed><hdop>6.8</hdop><src>gps</src><sat>9</sat><time>2015-11-28T13:18:27Z</time></trkpt>
<trkpt lat="47.41115955" lon="9.54392351"><ele>1119.0</ele><speed>0.0</speed><hdop>6.0</hdop><src>gps</src><sat>8</sat><time>2015-11-28T13:19:33Z</time></trkpt>
<trkpt lat="47.41094574" lon="9.54469889"><ele>1112.699951171875</ele><course>104.6</course><speed>0.75</speed><hdop>1.2</hdop><src>gps</src><sat>10</sat><time>2015-11-28T13:20:59Z</time></trkpt>
<trkpt lat="47.41098952" lon="9.54535299"><ele>1115.4000244140625</ele><course>90.5</course><speed>1.25</speed><hdop>1.0</hdop><src>gps</src><sat>10</sat><time>2015-11-28T13:22:21Z</time></trkpt>
<trkpt lat="47.41121641" lon="9.54617122"><ele>1105.0999755859375</ele><course>50.0</course><speed>0.5</speed><hdop>5.8</hdop><src>gps</src><sat>10</sat><time>2015-11-28T13:23:40Z</time></trkpt>
<trkpt lat="47.41125431" lon="9.54698369"><ele>1111.800048828125</ele><course>88.3</course><speed>0.75</speed><hdop>6.0</hdop><src>gps</src><sat>9</sat><time>2015-11-28T13:24:47Z</time></trkpt>
<trkpt lat="47.41114533" lon="9.54760109"><ele>1102.199951171875</ele><course>89.5</course><speed>0.9013878</speed><hdop>1.8</hdop><src>gps</src><sat>8</sat><time>2015-11-28T13:26:00Z</time></trkpt>
<trkpt lat="47.41114683" lon="9.54782427"><ele>1094.0</ele><speed>0.0</speed><hdop>6.4</hdop><src>gps</src><sat>10</sat><time>2015-11-28T13:27:07Z</time></trkpt>
<trkpt lat="47.41119806" lon="9.54862667"><ele>1086.0999755859375</ele><course>83.6</course><speed>0.25</speed><hdop>2.6</hdop><src>gps</src><sat>9</sat><time>2015-11-28T13:28:16Z</time></trkpt>
<trkpt lat="47.41113327" lon="9.54865924"><ele>1083.800048828125</ele><course>83.6</course><speed>0.5</speed><hdop>1.4</hdop><src>gps</src><sat>5</sat><time>2015-11-28T13:28:16Z</time></trkpt>
<trkpt lat="47.41099361" lon="9.54883813"><ele>1085.5999755859375</ele><course>318.8</course><speed>1.118034</speed><hdop>1.6</hdop><src>gps</src><sat>10</sat><time>2015-11-28T13:31:40Z</time></trkpt>
<trkpt lat="47.41122001" lon="9.54929134"><ele>1076.0999755859375</ele><course>91.1</course><speed>0.75</speed><hdop>2.2</hdop><src>gps</src><sat>9</sat><time>2015-11-28T13:32:51Z</time></trkpt>
<trkpt lat="47.41165581" lon="9.548708"><ele>1090.699951171875</ele><course>354.8</course><speed>0.9013878</speed><hdop>7.4</hdop><src>gps</src><sat>9</sat><time>2015-11-28T13:34:01Z</time></trkpt>
<trkpt lat="47.41182206" lon="9.54847654"><ele>1075.199951171875</ele><hdop>15.4</hdop><src>gps</src><sat>10</sat><time>2015-11-28T13:35:18Z</time></trkpt>
<trkpt lat="47.41204353" lon="9.54910065"><ele>1074.9000244140625</ele><speed>0.0</speed><hdop>1.6</hdop><src>gps</src><sat>9</sat><time>2015-11-28T13:36:38Z</time></trkpt>
<trkpt lat="47.41228739" lon="9.54964912"><ele>1065.5</ele><speed>0.0</speed><hdop>4.2</hdop><src>gps</src><sat>10</sat><time>2015-11-28T13:38:46Z</time></trkpt>
<trkpt lat="47.41252665" lon="9.55013155"><ele>1072.300048828125</ele><course>22.6</course><speed>1.25</speed><hdop>9.2</hdop><src>gps</src><sat>10</sat><time>2015-11-28T13:39:55Z</time></trkpt>
<trkpt lat="47.4124978" lon="9.55049573"><ele>1079.0999755859375</ele><course>89.0</course><speed>1.0</speed><hdop>1.0</hdop><src>gps</src><sat>9</sat><time>2015-11-28T13:41:02Z</time></trkpt>
<trkpt lat="47.41266527" lon="9.55111483"><ele>1082.199951171875</ele><speed>0.0</speed><hdop>6.0</hdop><src>gps</src><sat>9</sat><time>2015-11-28T13:42:24Z</time></trkpt>
<trkpt lat="47.41268851" lon="9.55113047"><ele>1085.300048828125</ele><hdop>14.6</hdop><src>gps</src><sat>9</sat><time>2015-11-28T13:43:36Z</time></trkpt>
<trkpt lat="47.41298602" lon="9.55111928"><ele>1066.5999755859375</ele><course>89.0</course><speed>0.75</speed><hdop>5.2</hdop><src>gps</src><sat>9</sat><time>2015-11-28T13:44:47Z</time></trkpt>
<trkpt lat="47.41325984" lon="9.5509775"><ele>1087.5999755859375</ele><speed>0.0</speed><hdop>7.4</hdop><src>gps</src><sat>10</sat><time>2015-11-28T13:45:55Z</time></trkpt>
<trkpt lat="47.41394424" lon="9.54989439"><ele>1096.5999755859375</ele><speed>0.0</speed><hdop>12.0</hdop><src>gps</src><sat>8</sat><time>2015-11-28T13:47:31Z</time></trkpt>
<trkpt lat="47.41358027" lon="9.55050645"><ele>1085.699951171875</ele><speed>0.0</speed><hdop>9.2</hdop><src>gps</src><sat>1</sat><time>2015-11-28T13:48:39Z</time></trkpt>
<trkpt lat="47.41347687" lon="9.54997078"><ele>1071.5</ele><course>289.7</course><speed>0.75</speed><hdop>3.6</hdop><src>gps</src><sat>8</sat><time>2015-11-28T13:49:45Z</time></trkpt>
<trkpt lat="47.4137707" lon="9.54882255"><ele>1079.5</ele><course>299.6</course><speed>1.0</speed><hdop>1.2</hdop><src>gps</src><sat>8</sat><time>2015-11-28T13:51:26Z</time></trkpt>
<trkpt lat="47.41379635" lon="9.54871482"><ele>1087.5</ele><speed>0.0</speed><hdop>3.6</hdop><src>gps</src><sat>9</sat><time>2015-11-28T13:53:50Z</time></trkpt>
<trkpt lat="47.4137961" lon="9.5487231"><ele>1078.4000244140625</ele><speed>0.0</speed><hdop>4.0</hdop><src>gps</src><sat>8</sat><time>2015-11-28T13:54:56Z</time></trkpt>
<trkpt lat="47.41380272" lon="9.54873568"><ele>1076.0</ele><course>59.6</course><speed>0.75</speed><hdop>5.6</hdop><src>gps</src><sat>10</sat><time>2015-11-28T13:56:37Z</time></trkpt>
<trkpt lat="47.41435321" lon="9.54937336"><ele>1056.199951171875</ele><course>23.3</course><speed>0.5</speed><hdop>1.4</hdop><src>gps</src><sat>8</sat><time>2015-11-28T13:57:50Z</time></trkpt>
<trkpt lat="47.41464187" lon="9.54945615"><ele>1063.5999755859375</ele><course>293.6</course><speed>0.70710677</speed><hdop>1.0</hdop><src>gps</src><sat>9</sat><time>2015-11-28T13:59:02Z</time></trkpt>
<trkpt lat="47.41456258" lon="9.54929562"><ele>1026.0</ele><course>19.7</course><speed>0.25</speed><hdop>1.4</hdop><src>gps</src><sat>9</sat><time>2015-11-28T14:00:07Z</time></trkpt>
<trkpt lat="47.41483547" lon="9.54873353"><ele>1036.699951171875</ele><hdop>11.8</hdop><src>gps</src><sat>8</sat><time>2015-11-28T14:01:19Z</time></trkpt>
<trkpt lat="47.41498838" lon="9.54828944"><ele>1044.0999755859375</ele><speed>0.0</speed><hdop>1.2</hdop><src>gps</src><sat>6</sat><time>2015-11-28T14:02:23Z</time></trkpt>
<trkpt lat="47.41500831" lon="9.5482168"><ele>1042.300048828125</ele><course>312.5</course><speed>0.75</speed><hdop>7.6</hdop><src>gps</src><sat>9</sat><time>2015-11-28T14:04:14Z</time></trkpt>
<trkpt lat="47.4153919" lon="9.54854793"><ele>1042.4000244140625</ele><course>30.9</course><speed>0.75</speed><hdop>1.4</hdop><src>gps</src><sat>9</sat><time>2015-11-28T14:05:19Z</time></trkpt>
<trkpt lat="47.41555997" lon="9.54876338"><ele>1048.4000244140625</ele><speed>0.0</speed><hdop>8.0</hdop><src>gps</src><sat>9</sat><time>2015-11-28T14:06:27Z</time></trkpt>
<trkpt lat="47.41544555" lon="9.54835615"><ele>1038.4000244140625</ele><course>260.0</course><speed>1.0</speed><hdop>3.4</hdop><src>gps</src><sat>9</sat><time>2015-11-28T14:07:36Z</time></trkpt>
<trkpt lat="47.41543354" lon="9.54774975"><ele>1023.7999877929688</ele><speed>0.0</speed><hdop>6.2</hdop><src>gps</src><sat>8</sat><time>2015-11-28T14:09:32Z</time></trkpt>
<trkpt lat="47.41565712" lon="9.54759231"><ele>1018.5</ele><course>342.2</course><speed>0.75</speed><hdop>1.2</hdop><src>gps</src><sat>6</sat><time>2015-11-28T14:10:38Z</time></trkpt>
<trkpt lat="47.41592538" lon="9.54700695"><ele>1015.2000122070313</ele><course>298.2</course><speed>1.5</speed><hdop>3.6</hdop><src>gps</src><sat>8</sat><time>2015-11-28T14:11:44Z</time></trkpt>
<trkpt lat="47.4162355" lon="9.54626548"><ele>1005.7000122070313</ele><course>280.1</course><speed>0.70710677</speed><hdop>6.2</hdop><src>gps</src><sat>8</sat><time>2015-11-28T14:12:50Z</time></trkpt>
<trkpt lat="47.41655015" lon="9.54646288"><ele>1059.199951171875</ele><speed>0.0</speed><hdop>6.6</hdop><src>gps</src><sat>7</sat><time>2015-11-28T14:13:55Z</time></trkpt>
<trkpt lat="47.41643682" lon="9.54653854"><ele>1015.2999877929688</ele><speed>0.0</speed><hdop>9.4</hdop><src>gps</src><sat>8</sat><time>2015-11-28T14:15:23Z</time></trkpt>
<trkpt lat="47.41633965" lon="9.54661733"><ele>1011.2000122070313</ele><course>36.6</course><speed>0.75</speed><hdop>5.6</hdop><src>gps</src><sat>7</sat><time>2015-11-28T14:16:29Z</time></trkpt>
<trkpt lat="47.41633609" lon="9.54657365"><ele>1007.9000244140625</ele><speed>0.0</speed><hdop>6.2</hdop><src>gps</src><sat>7</sat><time>2015-11-28T14:18:01Z</time></trkpt>
<trkpt lat="47.41575904" lon="9.54634998"><ele>1038.9000244140625</ele><course>36.6</course><speed>0.5</speed><hdop>8.4</hdop><src>gps</src><sat>8</sat><time>2015-11-28T14:19:09Z</time></trkpt>
<trkpt lat="47.41579179" lon="9.54615853"><ele>1017.4000244140625</ele><speed>0.0</speed><hdop>6.2</hdop><src>gps</src><sat>8</sat><time>2015-11-28T14:20:19Z</time></trkpt>
<trkpt lat="47.4161176" lon="9.54568294"><ele>1020.2999877929688</ele><course>319.3</course><speed>1.0</speed><hdop>7.8</hdop><src>gps</src><sat>8</sat><time>2015-11-28T14:21:27Z</time></trkpt>
<trkpt lat="47.41644857" lon="9.54442638"><ele>1024.300048828125</ele><speed>0.0</speed><hdop>7.6</hdop><src>gps</src><sat>8</sat><time>2015-11-28T14:22:35Z</time></trkpt>
<trkpt lat="47.41641437" lon="9.54362848"><ele>1023.0999755859375</ele><course>294.9</course><speed>0.5</speed><hdop>7.0</hdop><src>gps</src><sat>7</sat><time>2015-11-28T14:23:43Z</time></trkpt>
<trkpt lat="47.4161135" lon="9.54213442"><ele>1045.699951171875</ele><speed>0.0</speed><hdop>12.8</hdop><src>gps</src><sat>6</sat><time>2015-11-28T14:26:39Z</time></trkpt>
<trkpt lat="47.41615193" lon="9.5423503"><ele>1072.199951171875</ele><speed>0.0</speed><hdop>10.0</hdop><src>gps</src><sat>7</sat><time>2015-11-28T14:27:53Z</time></trkpt>
<trkpt lat="47.41600609" lon="9.54252097"><ele>1078.0</ele><speed>0.0</speed><hdop>9.2</hdop><src>gps</src><sat>8</sat><time>2015-11-28T14:30:38Z</time></trkpt>
<trkpt lat="47.41586694" lon="9.54266775"><ele>1045.300048828125</ele><course>199.0</course><speed>0.75</speed><hdop>6.6</hdop><src>gps</src><sat>8</sat><time>2015-11-28T14:38:17Z</time></trkpt>
<trkpt lat="47.4143376" lon="9.5431346"><ele>1079.5</ele><course>212.5</course><speed>0.25</speed><hdop>7.8</hdop><src>gps</src><sat>8</sat><time>2015-11-28T14:40:05Z</time></trkpt>
<trkpt lat="47.41331983" lon="9.54416925"><ele>1076.0999755859375</ele><course>162.0</course><speed>0.70710677</speed><hdop>5.6</hdop><src>gps</src><sat>8</sat><time>2015-11-28T14:43:01Z</time></trkpt>
<trkpt lat="47.4127019" lon="9.54388532"><ele>1057.5</ele><speed>0.0</speed><hdop>9.2</hdop><src>gps</src><sat>8</sat><time>2015-11-28T14:45:30Z</time></trkpt>
<trkpt lat="47.41264394" lon="9.54263846"><ele>1108.0</ele><course>232.7</course><speed>1.3462912</speed><hdop>6.8</hdop><src>gps</src><sat>8</sat><time>2015-11-28T14:47:23Z</time></trkpt>
<trkpt lat="47.41256382" lon="9.54213535"><ele>1109.699951171875</ele><course>247.7</course><speed>1.25</speed><hdop>2.6</hdop><src>gps</src><sat>5</sat><time>2015-11-28T14:48:31Z</time></trkpt>
<trkpt lat="47.41244999" lon="9.541308"><ele>1118.800048828125</ele><speed>0.0</speed><hdop>3.0</hdop><src>gps</src><sat>4</sat><time>2015-11-28T14:49:36Z</time></trkpt>
<trkpt lat="47.41241469" lon="9.54129713"><ele>1119.5</ele><course>144.5</course><speed>0.75</speed><hdop>4.8</hdop><src>gps</src><sat>8</sat><time>2015-11-28T14:50:41Z</time></trkpt>
<trkpt lat="47.41166672" lon="9.54124403"><ele>1138.699951171875</ele><course>184.0</course><speed>0.75</speed><hdop>3.8</hdop><src>gps</src><sat>10</sat><time>2015-11-28T14:51:55Z</time></trkpt>
<trkpt lat="47.41132518" lon="9.5409737"><ele>1130.699951171875</ele><course>216.8</course><speed>1.0</speed><hdop>1.8</hdop><src>gps</src><sat>9</sat><time>2015-11-28T14:53:36Z</time></trkpt>
<trkpt lat="47.41100415" lon="9.54065899"><ele>1124.0</ele><speed>0.0</speed><hdop>8.2</hdop><src>gps</src><sat>8</sat><time>2015-11-28T14:54:47Z</time></trkpt>
<trkpt lat="47.41104106" lon="9.5406905"><ele>1121.5</ele><speed>0.0</speed><hdop>4.8</hdop><src>gps</src><sat>9</sat><time>2015-11-28T14:55:53Z</time></trkpt>
<trkpt lat="47.41101062" lon="9.54068634"><ele>1132.9000244140625</ele><speed>0.0</speed><hdop>4.0</hdop><src>gps</src><sat>9</sat><time>2015-11-28T14:56:58Z</time></trkpt>
</trkseg></trk></gpx>